Time;durP1;ratioP1;P1;durP2;ratioP2;P2;SDS_P1;SDS_P2;PMS_P1;PMS_P2;Temp;Humidity;BMP_temperature;BMP_pressure;BME280_temperature;BME280_humidity;BME280_pressure;Samples;Min_cycle;Max_cycle;Signal;HPM_P1;HPM_P2
2022/02/17 00:01:40;;;;;;;38.63;24.83;;;;;;;0.12;100.00;94547.81;5064017;28;20440;-73
2022/02/17 00:04:05;;;;;;;37.80;24.13;;;;;;;0.27;100.00;94584.81;5068121;28;20040;-73
2022/02/17 00:06:30;;;;;;;35.55;22.73;;;;;;;0.47;100.00;94583.28;5065552;28;20028;-73
2022/02/17 00:08:56;;;;;;;43.10;25.98;;;;;;;0.42;100.00;94587.91;5067746;28;20054;-73
2022/02/17 00:11:21;;;;;;;38.30;25.38;;;;;;;0.37;100.00;94593.38;5065830;28;20025;-73
2022/02/17 00:13:47;;;;;;;56.03;33.33;;;;;;;0.51;100.00;94594.84;5050721;28;20048;-73
2022/02/17 00:16:12;;;;;;;47.00;29.38;;;;;;;0.56;100.00;94594.47;5066631;28;20024;-73
2022/02/17 00:18:37;;;;;;;39.20;26.70;;;;;;;0.51;100.00;94595.63;5049805;28;20032;-73
2022/02/17 00:21:03;;;;;;;42.53;26.65;;;;;;;0.57;100.00;94594.38;5068853;28;20027;-73
2022/02/17 00:23:28;;;;;;;39.35;25.85;;;;;;;0.44;100.00;94601.34;5066747;28;20024;-73
2022/02/17 00:25:54;;;;;;;41.38;25.55;;;;;;;0.56;100.00;94602.09;5051191;28;20438;-73
2022/02/17 00:28:20;;;;;;;42.70;26.50;;;;;;;0.73;100.00;94596.53;5048611;28;20028;-73
2022/02/17 00:30:46;;;;;;;41.40;26.83;;;;;;;0.57;100.00;94594.38;5067571;28;20032;-73
2022/02/17 00:33:11;;;;;;;39.92;25.75;;;;;;;0.38;100.00;94589.91;5066868;28;20029;-73
2022/02/17 00:35:37;;;;;;;39.90;25.88;;;;;;;0.32;100.00;94585.25;5067010;28;20024;-73
2022/02/17 00:38:02;;;;;;;42.05;28.05;;;;;;;0.17;100.00;94586.44;5066613;28;20035;-73
2022/02/17 00:40:28;;;;;;;38.20;26.92;;;;;;;0.21;100.00;94581.94;5048905;28;20025;-73
2022/02/17 00:42:54;;;;;;;46.38;28.58;;;;;;;0.25;100.00;94584.13;5067129;28;20039;-73
2022/02/17 00:45:19;;;;;;;43.17;28.88;;;;;;;0.21;100.00;94585.28;5066539;28;20497;-72
2022/02/17 00:47:45;;;;;;;42.60;27.63;;;;;;;0.37;100.00;94582.38;5067148;28;20017;-73
2022/02/17 00:50:11;;;;;;;50.83;30.65;;;;;;;0.42;100.00;94583.63;5066499;28;20029;-72
2022/02/17 00:52:36;;;;;;;47.08;30.73;;;;;;;0.49;100.00;94574.56;5066722;28;20572;-72
2022/02/17 00:55:03;;;;;;;50.20;30.80;;;;;;;0.45;100.00;94570.66;5049403;28;20025;-73
2022/02/17 00:57:28;;;;;;;48.10;32.88;;;;;;;0.29;100.00;94570.22;5066080;28;20043;-73
2022/02/17 00:59:54;;;;;;;55.13;35.28;;;;;;;0.09;100.00;94568.41;5066563;28;20486;-73
2022/02/17 01:02:19;;;;;;;43.55;29.00;;;;;;;0.26;100.00;94560.28;5048124;28;20508;-73
2022/02/17 01:04:44;;;;;;;42.35;29.10;;;;;;;0.23;100.00;94563.06;5066759;28;20032;-73
2022/02/17 01:07:10;;;;;;;41.75;28.55;;;;;;;0.23;100.00;94560.50;5047954;28;20560;-73
2022/02/17 01:09:35;;;;;;;40.58;27.42;;;;;;;0.24;100.00;94559.59;5050044;28;20035;-72
2022/02/17 01:12:01;;;;;;;48.42;28.90;;;;;;;0.20;100.00;94554.84;5064627;28;20058;-73
2022/02/17 01:14:26;;;;;;;49.20;32.78;;;;;;;0.17;100.00;94565.25;5065642;28;20082;-73
2022/02/17 01:16:52;;;;;;;80.32;46.50;;;;;;;0.38;100.00;94569.53;5049050;28;20432;-73
2022/02/17 01:19:17;;;;;;;62.53;38.97;;;;;;;0.46;100.00;94569.72;5066614;28;20037;-73
2022/02/17 01:21:44;;;;;;;51.58;32.10;;;;;;;0.41;100.00;94568.47;5066168;28;20029;-73
2022/02/17 01:24:10;;;;;;;53.38;30.52;;;;;;;0.37;100.00;94562.81;5047762;28;20113;-72
2022/02/17 01:26:35;;;;;;;50.35;31.23;;;;;;;0.50;100.00;94562.66;5066717;28;20474;-73
2022/02/17 01:29:01;;;;;;;51.78;32.40;;;;;;;0.46;100.00;94562.09;5063896;28;20115;-73
2022/02/17 01:31:26;;;;;;;48.05;29.85;;;;;;;0.48;100.00;94559.44;5049585;28;20531;-73
2022/02/17 01:33:52;;;;;;;46.17;28.80;;;;;;;0.49;100.00;94551.66;5064350;28;20024;-73
2022/02/17 01:36:18;;;;;;;47.70;30.38;;;;;;;0.48;100.00;94557.66;5067295;28;20025;-73
2022/02/17 01:38:46;;;;;;;55.05;35.95;;;;;;;0.65;100.00;94553.81;5066701;28;20036;-72
2022/02/17 01:41:12;;;;;;;47.25;32.70;;;;;;;0.52;100.00;94541.22;5064107;28;20020;-73
2022/02/17 01:43:38;;;;;;;49.22;32.03;;;;;;;0.21;100.00;94536.91;5066122;28;20482;-73
2022/02/17 01:46:05;;;;;;;46.63;29.15;;;;;;;0.32;100.00;94544.50;5063669;28;20041;-73
2022/02/17 01:48:31;;;;;;;44.20;29.80;;;;;;;0.20;100.00;94545.47;5049644;28;20090;-73
2022/02/17 01:50:57;;;;;;;44.83;27.83;;;;;;;0.09;100.00;94542.16;5065178;28;20017;-73
2022/02/17 01:53:22;;;;;;;42.25;28.40;;;;;;;0.05;100.00;94535.66;5048842;28;20035;-73
2022/02/17 01:55:50;;;;;;;46.58;28.88;;;;;;;0.04;100.00;94534.03;5066136;28;20043;-73
2022/02/17 01:58:16;;;;;;;46.10;30.77;;;;;;;0.03;100.00;94528.16;5064547;28;20029;-73
2022/02/17 02:00:43;;;;;;;49.97;30.23;;;;;;;-0.03;100.00;94528.63;5049131;28;20112;-73
2022/02/17 02:03:09;;;;;;;48.35;30.13;;;;;;;-0.05;100.00;94538.94;5046533;28;20542;-72
2022/02/17 02:05:35;;;;;;;51.70;31.98;;;;;;;0.06;100.00;94548.28;5049415;28;20208;-72
2022/02/17 02:08:01;;;;;;;53.33;31.17;;;;;;;-0.10;100.00;94533.38;5063134;28;20667;-73
2022/02/17 02:10:26;;;;;;;49.60;29.35;;;;;;;-0.23;100.00;94542.06;5048648;28;20029;-73
2022/02/17 02:12:52;;;;;;;63.75;37.70;;;;;;;-0.60;100.00;94539.75;5063758;28;20052;-73
2022/02/17 02:15:17;;;;;;;50.33;31.45;;;;;;;-0.24;100.00;94550.63;5048314;28;20622;-73
2022/02/17 02:17:44;;;;;;;47.25;30.27;;;;;;;-0.22;100.00;94558.94;5065002;28;20468;-73
2022/02/17 02:20:14;;;;;;;49.10;31.17;;;;;;;-0.26;100.00;94547.38;5065041;28;20035;-73
2022/02/17 02:22:40;;;;;;;51.10;30.48;;;;;;;-0.30;100.00;94539.19;5065479;28;20036;-73
2022/02/17 02:25:06;;;;;;;44.72;29.42;;;;;;;-0.24;100.00;94536.16;5045783;28;20024;-73
2022/02/17 02:27:31;;;;;;;44.22;29.58;;;;;;;-0.25;100.00;94534.53;5065318;28;20052;-73
2022/02/17 02:29:57;;;;;;;41.05;27.23;;;;;;;-0.15;100.00;94544.81;5063434;28;20052;-73
2022/02/17 02:32:22;;;;;;;41.22;26.48;;;;;;;-0.12;100.00;94532.69;5047942;28;20052;-73
2022/02/17 02:34:48;;;;;;;42.13;27.27;;;;;;;-0.18;100.00;94522.16;5066037;28;20021;-73
2022/02/17 02:37:13;;;;;;;41.92;27.77;;;;;;;-0.15;100.00;94527.84;5063535;28;20489;-72
2022/02/17 02:39:39;;;;;;;36.65;26.50;;;;;;;-0.04;100.00;94534.66;5064958;28;20024;-72
2022/02/17 02:42:05;;;;;;;40.42;26.83;;;;;;;-0.02;100.00;94528.50;5062648;28;20044;-72
2022/02/17 02:44:30;;;;;;;42.38;26.95;;;;;;;-0.04;100.00;94520.19;5066336;28;20037;-73
2022/02/17 02:46:56;;;;;;;35.60;25.23;;;;;;;-0.21;100.00;94513.03;5062983;28;20028;-73
2022/02/17 02:49:22;;;;;;;45.30;27.52;;;;;;;-0.31;100.00;94524.03;5064644;28;20033;-73
2022/02/17 02:51:47;;;;;;;44.03;27.55;;;;;;;-0.31;100.00;94524.84;5065078;28;20021;-73
2022/02/17 02:54:13;;;;;;;89.07;54.30;;;;;;;-0.55;100.00;94526.69;5063829;28;20021;-73
2022/02/17 02:56:38;;;;;;;56.90;36.03;;;;;;;-0.41;100.00;94534.06;5066652;28;20025;-73
2022/02/17 02:59:04;;;;;;;52.05;33.17;;;;;;;-0.37;100.00;94529.56;5062759;28;20025;-73
2022/02/17 03:01:29;;;;;;;52.40;32.33;;;;;;;-0.50;100.00;94518.72;5064908;28;20079;-73
2022/02/17 03:03:55;;;;;;;44.13;27.63;;;;;;;-0.40;100.00;94525.53;5062242;28;20490;-72
2022/02/17 03:06:20;;;;;;;45.30;27.90;;;;;;;-0.40;100.00;94524.72;5064633;28;20028;-73
2022/02/17 03:08:46;;;;;;;50.42;30.15;;;;;;;-0.42;100.00;94537.56;5063843;28;20021;-72
2022/02/17 03:11:11;;;;;;;48.17;31.95;;;;;;;-0.39;100.00;94532.25;5064572;28;20016;-72
2022/02/17 03:13:37;;;;;;;48.28;30.20;;;;;;;-0.52;100.00;94536.63;5063494;28;20583;-73
2022/02/17 03:16:03;;;;;;;48.60;30.60;;;;;;;-0.64;100.00;94527.34;5063475;28;20340;-72
2022/02/17 03:18:29;;;;;;;43.00;29.45;;;;;;;-0.40;100.00;94530.63;5065567;28;20032;-73
2022/02/17 03:20:54;;;;;;;42.55;26.25;;;;;;;-0.39;100.00;94526.34;5063746;28;20035;-73
2022/02/17 03:23:19;;;;;;;41.30;27.75;;;;;;;-0.31;100.00;94536.75;5064220;28;20110;-73
2022/02/17 03:25:45;;;;;;;51.38;31.35;;;;;;;-0.58;100.00;94532.00;5062581;28;20564;-73
2022/02/17 03:28:11;;;;;;;35.63;23.80;;;;;;;-0.56;100.00;94540.31;5065642;28;20036;-73
2022/02/17 03:30:36;;;;;;;36.40;24.25;;;;;;;-0.60;100.00;94538.94;5064143;28;20441;-73
2022/02/17 03:33:03;;;;;;;52.78;30.52;;;;;;;-0.66;100.00;94540.19;5063848;28;20025;-72
2022/02/17 03:35:29;;;;;;;49.65;29.90;;;;;;;-0.59;100.00;94533.75;5065769;28;20074;-72
2022/02/17 03:37:54;;;;;;;50.78;31.90;;;;;;;-0.66;100.00;94539.38;5067961;28;20072;-72
2022/02/17 03:40:20;;;;;;;48.42;29.80;;;;;;;-0.57;100.00;94536.97;5068321;28;20473;-73
2022/02/17 03:42:45;;;;;;;45.53;28.73;;;;;;;-0.60;100.00;94547.38;5065963;28;20062;-73
2022/02/17 03:45:12;;;;;;;47.40;27.50;;;;;;;-0.65;100.00;94551.19;5051852;28;20418;-72
2022/02/17 03:47:37;;;;;;;51.83;30.92;;;;;;;-0.47;100.00;94543.91;5066094;28;20024;-72
2022/02/17 03:50:04;;;;;;;54.92;34.05;;;;;;;-0.55;100.00;94541.94;5068214;28;20123;-73
2022/02/17 03:52:29;;;;;;;46.17;29.75;;;;;;;-0.71;100.00;94539.75;5066988;28;20021;-73
2022/02/17 03:54:55;;;;;;;49.95;31.17;;;;;;;-0.73;100.00;94533.13;5067467;28;20021;-73
2022/02/17 03:57:20;;;;;;;46.83;28.05;;;;;;;-0.93;100.00;94526.19;5068913;28;20033;-73
2022/02/17 03:59:46;;;;;;;47.88;29.48;;;;;;;-0.98;100.00;94533.31;5066504;28;20045;-72
2022/02/17 04:02:11;;;;;;;47.15;27.63;;;;;;;-1.04;100.00;94529.50;5051550;28;20028;-73
2022/02/17 04:04:37;;;;;;;43.17;26.83;;;;;;;-0.88;100.00;94531.72;5065757;28;20024;-73
2022/02/17 04:07:03;;;;;;;48.25;25.92;;;;;;;-0.86;100.00;94540.84;5068007;28;20028;-73
2022/02/17 04:09:29;;;;;;;47.55;26.65;;;;;;;-0.92;100.00;94541.31;5049183;28;20119;-73
2022/02/17 04:11:54;;;;;;;52.08;31.27;;;;;;;-1.08;100.00;94528.91;5067894;28;20020;-73
2022/02/17 04:14:20;;;;;;;47.53;27.38;;;;;;;-0.90;100.00;94536.91;5066844;28;20551;-73
2022/02/17 04:16:46;;;;;;;41.97;27.08;;;;;;;-0.86;100.00;94537.50;5066221;28;20032;-72
2022/02/17 04:19:12;;;;;;;46.65;26.75;;;;;;;-0.90;100.00;94544.53;5068014;28;20547;-73
2022/02/17 04:21:37;;;;;;;48.45;29.80;;;;;;;-1.09;100.00;94529.81;5048574;28;20052;-73
2022/02/17 04:24:03;;;;;;;54.15;29.85;;;;;;;-1.21;100.00;94532.44;5067442;28;20028;-73
2022/02/17 04:26:28;;;;;;;47.38;29.20;;;;;;;-1.14;100.00;94543.78;5048889;28;20082;-72
2022/02/17 04:28:55;;;;;;;56.45;30.50;;;;;;;-1.02;100.00;94542.88;5068717;28;20031;-73
2022/02/17 04:31:22;;;;;;;50.15;30.33;;;;;;;-1.08;100.00;94544.16;5066641;28;20029;-73
2022/02/17 04:33:47;;;;;;;51.45;33.03;;;;;;;-1.04;100.00;94543.94;5066284;28;20029;-72
2022/02/17 04:36:13;;;;;;;65.03;35.95;;;;;;;-0.99;100.00;94545.22;5068586;28;20659;-73
2022/02/17 04:38:38;;;;;;;59.88;35.08;;;;;;;-1.00;100.00;94546.16;5065441;28;20061;-73
2022/02/17 04:43:53;;;;;;;59.65;41.75;;;;;;;-0.93;100.00;94542.22;5037071;28;20064;-73
2022/02/17 04:46:18;;;;;;;54.05;35.22;;;;;;;-0.99;100.00;94532.50;5050465;28;20024;-73
2022/02/17 04:48:44;;;;;;;47.03;29.35;;;;;;;-0.87;100.00;94526.53;5048565;28;20977;-74
2022/02/17 04:51:09;;;;;;;43.13;25.77;;;;;;;-0.81;100.00;94521.00;5065997;28;20086;-73
2022/02/17 04:53:35;;;;;;;38.63;26.52;;;;;;;-0.87;100.00;94518.09;5050018;28;20060;-73
2022/02/17 04:56:01;;;;;;;37.00;25.15;;;;;;;-0.85;100.00;94528.97;5065263;28;20067;-73
2022/02/17 04:58:27;;;;;;;43.80;27.50;;;;;;;-0.85;100.00;94523.88;5050510;28;20025;-73
2022/02/17 05:00:53;;;;;;;51.65;28.98;;;;;;;-0.85;100.00;94526.41;5064978;28;20426;-74
2022/02/17 05:03:23;;;;;;;47.38;28.40;;;;;;;-0.85;100.00;94539.13;5066550;28;20024;-74
2022/02/17 05:05:52;;;;;;;52.25;32.63;;;;;;;-0.81;100.00;94530.34;5065525;28;20032;-74
2022/02/17 05:08:18;;;;;;;45.45;27.13;;;;;;;-0.79;100.00;94525.97;5065753;28;20060;-73
2022/02/17 05:10:45;;;;;;;47.67;28.27;;;;;;;-0.74;100.00;94526.44;5067856;28;20032;-73
2022/02/17 05:13:11;;;;;;;40.63;26.52;;;;;;;-0.65;100.00;94521.50;5064263;28;20044;-73
2022/02/17 05:15:38;;;;;;;43.88;27.95;;;;;;;-0.55;100.00;94537.66;5068144;28;20446;-74
2022/02/17 05:18:04;;;;;;;49.13;29.38;;;;;;;-0.67;100.00;94527.59;5066036;28;20078;-73
2022/02/17 05:20:29;;;;;;;54.42;30.75;;;;;;;-0.72;100.00;94525.41;5066797;28;20498;-73
2022/02/17 05:22:54;;;;;;;37.10;24.25;;;;;;;-1.05;100.00;94522.78;5064379;28;20502;-74
2022/02/17 05:25:20;;;;;;;47.95;28.13;;;;;;;-1.16;100.00;94522.78;5066227;28;20055;-73
2022/02/17 05:27:45;;;;;;;39.78;24.98;;;;;;;-0.92;100.00;94518.44;5048752;28;20024;-73
2022/02/17 05:30:11;;;;;;;38.75;25.80;;;;;;;-0.77;100.00;94524.91;5065133;28;20024;-73
2022/02/17 05:32:40;;;;;;;43.67;26.50;;;;;;;-0.83;100.00;94525.38;5065924;28;20031;-73
2022/02/17 05:35:07;;;;;;;47.97;30.38;;;;;;;-0.93;100.00;94521.88;5064182;28;20098;-73
2022/02/17 05:37:33;;;;;;;49.35;28.13;;;;;;;-0.83;100.00;94532.19;5066440;28;20498;-73
2022/02/17 05:39:59;;;;;;;36.08;24.85;;;;;;;-0.85;100.00;94519.59;5063781;28;20398;-73
2022/02/17 05:42:24;;;;;;;42.65;24.98;;;;;;;-0.89;100.00;94512.31;5066675;28;20032;-73
2022/02/17 05:44:49;;;;;;;34.03;23.38;;;;;;;-0.82;100.00;94511.75;5064477;28;20032;-73
2022/02/17 05:47:15;;;;;;;43.72;25.17;;;;;;;-0.42;100.00;94516.41;5063118;28;20024;-73
2022/02/17 05:49:40;;;;;;;37.63;24.15;;;;;;;-0.56;100.00;94492.03;5048987;28;20033;-73
2022/02/17 05:52:06;;;;;;;43.63;27.98;;;;;;;-0.09;100.00;94501.09;5063875;28;20048;-73
2022/02/17 05:54:31;;;;;;;42.95;27.15;;;;;;;1.24;100.00;94476.81;5065954;28;20028;-74
2022/02/17 05:56:57;;;;;;;31.40;21.52;;;;;;;2.32;100.00;94445.41;5063620;28;20082;-73
2022/02/17 05:59:22;;;;;;;30.92;20.92;;;;;;;3.56;100.00;94419.59;5065799;28;20024;-73
2022/02/17 06:01:48;;;;;;;34.03;21.48;;;;;;;3.12;100.00;94403.22;5065261;28;20438;-73
2022/02/17 06:04:13;;;;;;;32.30;22.42;;;;;;;3.07;100.00;94414.81;5065310;28;20094;-73
2022/02/17 06:06:38;;;;;;;37.13;22.33;;;;;;;2.77;100.00;94425.22;5065359;28;20039;-73
2022/02/17 06:09:04;;;;;;;26.30;19.17;;;;;;;2.75;100.00;94422.00;5047284;28;20031;-73
2022/02/17 06:11:30;;;;;;;32.20;21.67;;;;;;;3.86;100.00;94417.69;5065538;28;20025;-73
2022/02/17 06:13:56;;;;;;;26.92;19.58;;;;;;;5.13;99.30;94410.47;5064153;28;20510;-73
2022/02/17 06:16:21;;;;;;;30.08;24.67;;;;;;;5.32;94.65;94408.50;5065676;28;20025;-73
2022/02/17 06:18:47;;;;;;;36.10;27.15;;;;;;;4.86;96.73;94415.72;5064311;28;20116;-73
2022/02/17 06:21:12;;;;;;;40.97;26.08;;;;;;;3.91;100.00;94418.91;5065219;28;20040;-73
2022/02/17 06:23:37;;;;;;;34.00;24.13;;;;;;;5.03;100.00;94417.47;5045821;28;20111;-73
2022/02/17 06:26:03;;;;;;;36.53;27.02;;;;;;;3.39;100.00;94430.59;5058735;28;20431;-73
2022/02/17 06:28:31;;;;;;;54.08;32.90;;;;;;;2.88;100.00;94435.31;5044978;28;20036;-73
2022/02/17 06:30:56;;;;;;;42.47;24.88;;;;;;;3.99;100.00;94421.53;5042574;28;20410;-73
2022/02/17 06:33:22;;;;;;;33.65;23.25;;;;;;;5.24;100.00;94410.19;5047139;28;20043;-73
2022/02/17 06:35:47;;;;;;;36.30;24.15;;;;;;;6.77;92.34;94402.97;5050216;28;20502;-73
2022/02/17 06:38:13;;;;;;;30.90;22.45;;;;;;;6.68;90.50;94405.66;5060944;28;20081;-74
2022/02/17 06:40:38;;;;;;;34.13;24.08;;;;;;;8.04;81.92;94421.00;5060975;28;20023;-73
2022/02/17 06:43:06;;;;;;;34.28;24.88;;;;;;;7.23;84.23;94428.97;5060582;28;20029;-73
2022/02/17 06:45:32;;;;;;;32.38;24.70;;;;;;;7.17;88.46;94429.63;5059490;28;20028;-73
2022/02/17 06:47:58;;;;;;;24.00;21.00;;;;;;;7.51;85.13;94439.72;5058398;28;20077;-73
2022/02/17 06:50:24;;;;;;;30.15;23.17;;;;;;;4.65;97.98;94450.22;5061899;28;20025;-73
2022/02/17 06:52:49;;;;;;;34.58;25.77;;;;;;;3.93;100.00;94459.72;5050059;28;20120;-73
2022/02/17 06:55:15;;;;;;;28.17;21.75;;;;;;;4.16;100.00;94448.13;5055149;28;20112;-73
2022/02/17 06:57:40;;;;;;;32.90;22.83;;;;;;;4.34;100.00;94441.25;5060119;28;20080;-73
2022/02/17 07:00:07;;;;;;;36.53;25.15;;;;;;;4.23;100.00;94442.28;5061004;28;20052;-73
2022/02/17 07:02:33;;;;;;;38.17;26.15;;;;;;;3.75;100.00;94435.81;5059716;28;20040;-73
2022/02/17 07:04:59;;;;;;;38.47;27.77;;;;;;;3.60;100.00;94438.84;5043531;28;20032;-73
2022/02/17 07:07:24;;;;;;;43.05;29.35;;;;;;;3.40;100.00;94437.34;5041015;28;20375;-73
2022/02/17 07:09:50;;;;;;;35.95;25.27;;;;;;;3.67;100.00;94439.09;5039357;28;20499;-73
2022/02/17 07:12:15;;;;;;;36.45;22.95;;;;;;;7.41;100.00;94422.69;5040441;28;20408;-73
2022/02/17 07:14:41;;;;;;;30.35;23.00;;;;;;;8.42;89.02;94422.75;5038557;28;20037;-73
2022/02/17 07:17:07;;;;;;;31.23;22.88;;;;;;;12.06;61.75;94419.69;5024650;28;20033;-73
2022/02/17 07:19:32;;;;;;;35.58;22.75;;;;;;;12.94;53.65;94410.91;5039208;28;20557;-73
2022/02/17 07:21:58;;;;;;;38.38;20.98;;;;;;;12.31;56.83;94419.16;5044009;28;20096;-73
2022/02/17 07:24:24;;;;;;;26.83;20.08;;;;;;;13.87;51.77;94415.09;5051089;28;20414;-74
2022/02/17 07:26:50;;;;;;;23.65;19.02;;;;;;;15.16;47.93;94413.91;5056698;28;20093;-74
2022/02/17 07:29:17;;;;;;;22.50;16.45;;;;;;;15.20;47.56;94409.88;5046470;28;20783;-74
2022/02/17 07:31:43;;;;;;;20.50;18.33;;;;;;;14.04;50.66;94389.41;5056316;28;20017;-74
2022/02/17 07:34:09;;;;;;;16.90;14.07;;;;;;;13.77;50.12;94388.72;5057170;28;20055;-74
2022/02/17 07:36:35;;;;;;;18.83;14.00;;;;;;;12.96;55.58;94388.16;5057955;28;20386;-74
2022/02/17 07:39:00;;;;;;;16.70;14.82;;;;;;;14.41;51.79;94390.50;5054650;28;20033;-74
2022/02/17 07:41:26;;;;;;;15.40;13.52;;;;;;;14.94;49.60;94383.97;5056287;28;20050;-74
2022/02/17 07:43:51;;;;;;;18.23;14.77;;;;;;;15.87;46.54;94379.56;5047525;28;20418;-74
2022/02/17 07:46:17;;;;;;;22.13;16.63;;;;;;;15.75;46.88;94382.13;5053018;28;20064;-73
2022/02/17 07:48:44;;;;;;;19.23;16.65;;;;;;;15.06;48.31;94371.84;5047522;28;20044;-74
2022/02/17 07:51:09;;;;;;;16.27;14.77;;;;;;;12.89;53.75;94324.97;5037216;28;20031;-73
2022/02/17 07:53:35;;;;;;;21.90;15.18;;;;;;;16.13;47.76;94368.84;5053057;28;20029;-73
2022/02/17 07:56:01;;;;;;;18.52;16.35;;;;;;;16.19;47.33;94360.13;5055117;28;20120;-73
2022/02/17 07:58:27;;;;;;;18.13;15.50;;;;;;;15.80;46.15;94348.31;5054125;28;20032;-73
2022/02/17 08:00:52;;;;;;;20.35;15.18;;;;;;;16.29;46.22;94338.69;5042141;28;20021;-73
2022/02/17 08:03:18;;;;;;;18.92;15.38;;;;;;;16.83;45.08;94343.00;5057313;28;20038;-73
2022/02/17 08:05:43;;;;;;;18.63;16.38;;;;;;;15.36;49.18;94335.47;5057767;28;20029;-73
2022/02/17 08:08:10;;;;;;;19.10;16.15;;;;;;;16.11;48.17;94338.72;5059963;28;20028;-73
2022/02/17 08:10:36;;;;;;;20.40;15.43;;;;;;;14.69;51.14;94331.00;5040518;28;20040;-74
2022/02/17 08:13:03;;;;;;;21.40;15.65;;;;;;;12.55;59.10;94327.75;5063581;28;20549;-73
2022/02/17 08:15:28;;;;;;;25.17;15.80;;;;;;;12.30;59.76;94324.88;5054688;28;20067;-73
2022/02/17 08:17:54;;;;;;;19.15;14.38;;;;;;;12.15;61.04;94313.88;5052503;28;20125;-74
2022/02/17 08:20:19;;;;;;;16.88;15.15;;;;;;;11.96;62.65;94307.63;5057539;28;20024;-73
2022/02/17 08:22:53;;;;;;;20.38;15.70;;;;;;;13.78;53.98;94301.78;5059289;28;20442;-74
2022/02/17 08:25:20;;;;;;;17.13;13.40;;;;;;;13.54;55.77;94310.28;5045708;28;20036;-73
2022/02/17 08:27:46;;;;;;;17.05;14.23;;;;;;;14.50;52.28;94298.06;5061789;28;20096;-73
2022/02/17 08:30:12;;;;;;;17.23;13.98;;;;;;;17.04;45.74;94289.34;5063292;28;20398;-73
2022/02/17 08:32:38;;;;;;;16.98;15.32;;;;;;;17.76;44.21;94295.91;5043671;28;20025;-73
2022/02/17 08:35:05;;;;;;;18.20;15.05;;;;;;;17.64;43.75;94287.28;5062553;28;20028;-73
2022/02/17 08:37:32;;;;;;;15.98;14.48;;;;;;;19.24;41.50;94286.00;5060769;28;20028;-73
2022/02/17 08:39:58;;;;;;;15.43;12.98;;;;;;;19.20;41.07;94276.25;5064552;28;20025;-73
2022/02/17 08:42:23;;;;;;;14.00;12.52;;;;;;;17.71;42.07;94278.28;5045672;28;20032;-73
2022/02/17 08:44:49;;;;;;;14.90;11.68;;;;;;;19.41;39.59;94281.56;5061757;28;20125;-73
2022/02/17 08:47:17;;;;;;;14.25;11.32;;;;;;;20.26;39.56;94275.81;5064503;28;20023;-74
2022/02/17 08:49:42;;;;;;;19.92;12.93;;;;;;;19.30;39.19;94268.47;5060866;28;20749;-74
2022/02/17 08:52:08;;;;;;;14.68;12.82;;;;;;;20.04;38.98;94267.09;5046150;28;20029;-74
2022/02/17 08:54:34;;;;;;;15.60;13.77;;;;;;;17.68;42.42;94260.44;5061861;28;20081;-74
2022/02/17 08:56:59;;;;;;;15.18;13.68;;;;;;;17.34;45.45;94259.41;5063898;28;20032;-74
2022/02/17 08:59:25;;;;;;;13.85;12.27;;;;;;;18.36;42.30;94252.56;5062810;28;20115;-73
2022/02/17 09:01:51;;;;;;;13.10;11.82;;;;;;;17.44;43.84;94261.44;5044989;28;20024;-73
2022/02/17 09:04:17;;;;;;;15.40;11.88;;;;;;;20.80;39.14;94252.13;5062502;28;20029;-73
2022/02/17 09:06:42;;;;;;;14.80;11.25;;;;;;;20.02;40.31;94263.13;5060452;28;20417;-74
2022/02/17 09:09:07;;;;;;;13.15;11.80;;;;;;;18.73;40.57;94254.75;5064322;28;20020;-74
2022/02/17 09:11:33;;;;;;;12.43;11.13;;;;;;;21.59;37.37;94236.34;5060722;28;20028;-74
2022/02/17 09:13:58;;;;;;;15.10;11.00;;;;;;;22.85;36.10;94228.81;5062491;28;20106;-74
2022/02/17 09:16:24;;;;;;;15.68;11.15;;;;;;;23.47;34.38;94218.69;5060730;28;20028;-74
2022/02/17 09:18:49;;;;;;;13.18;11.88;;;;;;;22.62;35.88;94216.88;5063295;28;20472;-74
2022/02/17 09:21:16;;;;;;;17.20;11.73;;;;;;;22.25;35.93;94221.59;5063442;28;20017;-74
2022/02/17 09:23:41;;;;;;;21.38;11.55;;;;;;;24.05;33.92;94216.38;5060462;28;20462;-74
2022/02/17 09:26:08;;;;;;;19.25;11.15;;;;;;;23.19;36.03;94221.91;5062540;28;20509;-74
2022/02/17 09:28:35;;;;;;;11.40;9.55;;;;;;;21.73;36.90;94222.44;5059294;28;20024;-74
2022/02/17 09:31:00;;;;;;;10.82;9.52;;;;;;;24.03;34.07;94216.66;5062762;28;20556;-74
2022/02/17 09:33:26;;;;;;;11.38;9.35;;;;;;;23.03;36.17;94217.69;5059351;28;20140;-74
2022/02/17 09:35:53;;;;;;;10.27;8.82;;;;;;;23.88;34.82;94219.38;5063228;28;20533;-74
2022/02/17 09:38:19;;;;;;;9.57;8.57;;;;;;;24.22;34.43;94222.16;5061993;28;20075;-74
2022/02/17 09:40:46;;;;;;;15.23;8.52;;;;;;;23.22;35.60;94213.44;5060643;28;20024;-74
2022/02/17 09:43:12;;;;;;;10.30;8.43;;;;;;;24.19;34.33;94201.50;5061695;28;20038;-74
2022/02/17 09:45:44;;;;;;;11.90;7.72;;;;;;;23.21;35.56;94225.09;5061103;28;20028;-74
2022/02/17 09:48:15;;;;;;;7.82;7.05;;;;;;;23.62;34.28;94223.16;5061575;28;20070;-73
2022/02/17 09:50:41;;;;;;;10.55;7.30;;;;;;;25.10;32.87;94209.63;5059619;28;20115;-74
2022/02/17 09:53:07;;;;;;;8.75;7.70;;;;;;;21.71;35.53;94211.34;5063095;28;20064;-74
2022/02/17 09:55:33;;;;;;;8.98;8.07;;;;;;;21.92;36.65;94218.31;5060120;28;20585;-74
2022/02/17 09:57:59;;;;;;;9.68;7.47;;;;;;;24.09;34.22;94212.13;5060325;28;20410;-74
2022/02/17 10:00:25;;;;;;;11.73;7.40;;;;;;;24.36;33.26;94223.13;5062597;28;20033;-74
2022/02/17 10:02:52;;;;;;;9.27;7.35;;;;;;;24.53;33.60;94210.28;5060426;28;20082;-74
2022/02/17 10:05:17;;;;;;;8.70;7.75;;;;;;;23.78;33.28;94200.09;5061289;28;20040;-74
2022/02/17 10:07:44;;;;;;;7.28;6.38;;;;;;;23.00;34.93;94197.88;5059487;28;20031;-74
2022/02/17 10:10:22;;;;;;;11.90;6.95;;;;;;;24.20;33.70;94192.53;5061687;28;20032;-74
2022/02/17 10:12:54;;;;;;;7.50;6.80;;;;;;;23.78;33.30;94194.81;5059865;28;20044;-74
2022/02/17 10:15:34;;;;;;;9.45;7.40;;;;;;;23.24;34.59;94184.13;5060259;28;20044;-74
2022/02/17 10:18:12;;;;;;;10.75;7.35;;;;;;;23.30;34.95;94188.31;5044565;28;20033;-74
2022/02/17 10:20:57;;;;;;;;;;;;;;;22.82;35.28;94187.88;5059189;28;20032;-74
2022/02/17 10:23:24;;;;;;;9.77;8.43;;;;;;;22.92;36.46;94177.31;5061935;28;20377;-74
2022/02/17 10:26:11;;;;;;;12.85;10.15;;;;;;;22.27;36.76;94182.53;5059781;28;20531;-74
2022/02/17 10:28:41;;;;;;;14.50;11.50;;;;;;;21.97;37.04;94186.69;5059148;28;20021;-74
2022/02/17 10:31:07;;;;;;;;;;;;;;;22.60;35.67;94182.81;5061315;28;20059;-73
2022/02/17 10:33:54;;;;;;;17.15;11.48;;;;;;;18.24;44.44;94188.06;5061094;28;19967;-74
2022/02/17 10:36:37;;;;;;;14.30;10.80;;;;;;;16.90;47.49;94170.22;5065337;28;20020;-74
2022/02/17 10:39:19;;;;;;;16.10;12.30;;;;;;;16.19;51.14;94158.13;5063347;28;20082;-73
2022/02/17 10:41:59;;;;;;;20.55;12.35;;;;;;;15.06;54.97;94165.78;5062972;28;20036;-73
2022/02/17 10:44:33;;;;;;;20.85;13.40;;;;;;;15.01;54.78;94164.84;5065091;28;20560;-74
2022/02/17 10:47:34;;;;;;;15.30;13.70;;;;;;;15.36;54.12;94162.44;5062297;28;20126;-74
2022/02/17 10:49:59;;;;;;;16.85;13.10;;;;;;;14.86;55.80;94148.78;5005789;28;20075;-73
2022/02/17 10:52:36;;;;;;;21.55;13.10;;;;;;;14.64;56.32;94156.22;5051952;28;20468;-73
2022/02/17 10:55:20;;;;;;;19.10;13.77;;;;;;;15.04;55.01;94130.50;5062595;28;20016;-74
2022/02/17 10:57:51;;;;;;;16.88;14.52;;;;;;;15.90;51.88;94123.19;5064678;28;20029;-74
2022/02/17 11:00:18;;;;;;;16.88;15.18;;;;;;;15.60;52.73;94117.22;5063668;28;20016;-73
2022/02/17 11:02:45;;;;;;;17.58;15.05;;;;;;;14.91;56.64;94115.00;5063478;28;20036;-73
2022/02/17 11:05:12;;;;;;;24.58;15.23;;;;;;;15.59;53.62;94108.56;5064410;28;20036;-73
2022/02/17 11:07:39;;;;;;;16.92;14.40;;;;;;;15.05;54.60;94104.22;5062770;28;20020;-73
2022/02/17 11:10:05;;;;;;;25.90;15.75;;;;;;;15.35;54.54;94104.25;5048729;28;20523;-74
2022/02/17 11:12:31;;;;;;;21.63;15.73;;;;;;;14.92;56.57;94091.34;5045242;28;20419;-74
2022/02/17 11:15:04;;;;;;;23.17;15.85;;;;;;;14.65;56.96;94083.00;5064788;28;20016;-73
2022/02/17 11:17:37;;;;;;;19.23;14.68;;;;;;;15.40;55.66;94080.91;5064536;28;20049;-74